Time;durP1;ratioP1;P1;durP2;ratioP2;P2;SDS_P1;SDS_P2;PMS_P1;PMS_P2;Temp;Humidity;BMP_temperature;BMP_pressure;BME280_temperature;BME280_humidity;BME280_pressure;Samples;Min_cycle;Max_cycle;Signal;HPM_P1;HPM_P2
2023/07/02 00:01:52;;;;;;;4.00;3.60;;;;;;;17.31;100.00;155808.91;5011815;28;20461;-75
2023/07/02 00:04:20;;;;;;;3.93;3.53;;;;;;;17.30;100.00;155807.63;5010500;28;20453;-75
2023/07/02 00:06:48;;;;;;;3.80;3.40;;;;;;;17.31;100.00;155810.22;4990062;28;20448;-75
2023/07/02 00:09:15;;;;;;;6.27;3.80;;;;;;;17.33;100.00;155814.13;5013654;28;20452;-75
2023/07/02 00:11:44;;;;;;;6.37;3.30;;;;;;;17.26;100.00;155795.91;5014216;28;20464;-75
2023/07/02 00:14:11;;;;;;;4.33;3.90;;;;;;;17.27;100.00;155798.47;5011142;28;20475;-75
2023/07/02 00:16:39;;;;;;;5.40;3.77;;;;;;;17.25;100.00;155793.28;5009321;28;20464;-75
2023/07/02 00:19:05;;;;;;;4.40;3.60;;;;;;;17.23;100.00;155788.09;5006883;28;20457;-75
2023/07/02 00:21:33;;;;;;;5.13;3.30;;;;;;;17.22;100.00;155785.47;5021791;28;20467;-74
2023/07/02 00:24:01;;;;;;;3.93;3.53;;;;;;;17.19;100.00;155778.97;4994067;28;20463;-75
2023/07/02 00:26:28;;;;;;;4.00;3.60;;;;;;;17.16;100.00;155771.16;4991150;28;20546;-75
2023/07/02 00:28:56;;;;;;;4.20;3.53;;;;;;;17.13;100.00;155763.34;4971502;28;20455;-75
2023/07/02 00:31:23;;;;;;;4.93;3.47;;;;;;;17.08;100.00;155749.06;5012375;28;20479;-75
2023/07/02 00:33:50;;;;;;;3.67;3.37;;;;;;;17.05;100.00;155743.81;4988186;28;20980;-75
2023/07/02 00:36:17;;;;;;;4.53;3.40;;;;;;;17.00;100.00;155730.81;4990188;28;20766;-75
2023/07/02 00:38:46;;;;;;;3.80;3.50;;;;;;;16.98;100.00;155725.63;4971936;28;20465;-75
2023/07/02 00:41:14;;;;;;;6.80;3.53;;;;;;;16.94;100.00;155713.94;4994081;28;20464;-76
2023/07/02 00:43:43;;;;;;;4.37;3.37;;;;;;;16.91;100.00;155707.44;5007108;28;20541;-75
2023/07/02 00:46:13;;;;;;;4.70;4.00;;;;;;;16.91;100.00;155706.13;5002226;28;20888;-74
2023/07/02 00:48:40;;;;;;;5.30;4.10;;;;;;;16.90;100.00;155704.81;5005538;28;20485;-76
2023/07/02 00:51:06;;;;;;;4.10;3.70;;;;;;;16.85;100.00;155691.81;4991589;28;20460;-75
2023/07/02 00:53:33;;;;;;;4.07;3.67;;;;;;;16.85;100.00;155691.81;4982982;28;20536;-74
2023/07/02 00:56:00;;;;;;;4.13;3.73;;;;;;;16.82;100.00;155682.69;5006519;28;20484;-75
2023/07/02 00:58:29;;;;;;;4.33;3.93;;;;;;;16.82;100.00;155684.00;5016745;28;20448;-75
2023/07/02 01:00:56;;;;;;;3.53;3.00;;;;;;;16.82;100.00;155682.69;4994083;28;20520;-76
2023/07/02 01:03:23;;;;;;;4.00;3.70;;;;;;;16.81;100.00;155680.09;5004344;28;20968;-75
2023/07/02 01:05:49;;;;;;;4.37;3.40;;;;;;;16.81;100.00;155681.38;5008816;28;20491;-75
2023/07/02 01:08:16;;;;;;;4.20;3.50;;;;;;;16.81;100.00;155680.09;5007619;28;20460;-76
2023/07/02 01:10:44;;;;;;;4.23;3.40;;;;;;;16.80;100.00;155677.47;4991634;28;20474;-75
2023/07/02 01:13:17;;;;;;;3.50;3.07;;;;;;;16.78;100.00;155673.59;5005337;28;20456;-75
2023/07/02 01:15:46;;;;;;;4.90;3.90;;;;;;;16.78;100.00;155672.28;4988805;28;20557;-75
2023/07/02 01:18:13;;;;;;;4.60;3.73;;;;;;;16.83;100.00;155685.31;4990703;28;20453;-75
2023/07/02 01:20:41;;;;;;;3.83;2.97;;;;;;;16.81;100.00;155681.38;4991502;28;20869;-75
2023/07/02 01:23:09;;;;;;;4.40;3.47;;;;;;;16.78;100.00;155672.28;5007673;28;20445;-76
2023/07/02 01:25:36;;;;;;;3.97;3.57;;;;;;;16.77;100.00;155670.97;5013227;28;20428;-75
2023/07/02 01:28:03;;;;;;;4.23;3.27;;;;;;;16.78;100.00;155673.59;5001487;28;20463;-75
2023/07/02 01:30:30;;;;;;;3.63;3.33;;;;;;;16.77;100.00;155669.66;5004212;28;20468;-75
2023/07/02 01:32:56;;;;;;;3.70;3.40;;;;;;;16.77;100.00;155670.97;4987697;28;20492;-75
2023/07/02 01:35:23;;;;;;;4.40;3.50;;;;;;;16.75;100.00;155665.78;4992130;28;21006;-75
2023/07/02 01:37:51;;;;;;;3.30;2.93;;;;;;;16.73;100.00;155660.53;4975714;28;20468;-75
2023/07/02 01:40:18;;;;;;;3.27;3.03;;;;;;;16.73;100.00;155660.53;4987132;28;20456;-76
2023/07/02 01:42:44;;;;;;;4.33;3.93;;;;;;;16.71;100.00;155655.34;5005254;28;20898;-75
2023/07/02 01:45:11;;;;;;;5.60;4.10;;;;;;;16.66;100.00;155642.34;4993506;28;20457;-75
2023/07/02 01:47:37;;;;;;;3.70;3.40;;;;;;;16.65;100.00;155639.78;5001891;28;20457;-75
2023/07/02 01:50:05;;;;;;;4.30;3.37;;;;;;;16.57;100.00;155618.97;4992592;28;20479;-75
2023/07/02 01:52:33;;;;;;;6.50;3.60;;;;;;;16.56;100.00;155616.34;4983061;28;20887;-76
2023/07/02 01:55:02;;;;;;;5.33;3.43;;;;;;;16.55;100.00;155613.72;4997154;28;21060;-75
2023/07/02 01:57:31;;;;;;;4.33;3.60;;;;;;;16.55;100.00;155613.72;5008584;28;20471;-75
2023/07/02 01:59:58;;;;;;;4.07;3.50;;;;;;;16.50;100.00;155599.38;4985935;28;20484;-76
2023/07/02 02:02:25;;;;;;;4.40;3.40;;;;;;;16.49;100.00;155598.09;4992346;28;20965;-76
2023/07/02 02:04:52;;;;;;;4.00;3.60;;;;;;;16.48;100.00;155595.47;4988329;28;20453;-75
2023/07/02 02:07:20;;;;;;;4.30;3.83;;;;;;;16.48;100.00;155595.47;5005972;28;20461;-76
2023/07/02 02:09:46;;;;;;;3.47;3.17;;;;;;;16.50;100.00;155600.66;4969960;28;20461;-76
2023/07/02 02:12:15;;;;;;;6.07;4.60;;;;;;;16.56;100.00;155616.34;4994923;28;20472;-76
2023/07/02 02:14:42;;;;;;;4.13;3.53;;;;;;;16.55;100.00;155613.72;4986256;28;20449;-75
2023/07/02 02:17:08;;;;;;;3.97;3.57;;;;;;;16.55;100.00;155613.72;4989068;28;20547;-75
2023/07/02 02:19:35;;;;;;;3.90;3.30;;;;;;;16.54;100.00;155611.16;5007867;28;20493;-75
2023/07/02 02:22:01;;;;;;;4.50;3.80;;;;;;;16.57;100.00;155618.97;4993109;28;20453;-75
2023/07/02 02:24:28;;;;;;;4.93;3.40;;;;;;;16.59;100.00;155624.16;4990554;28;20468;-75
2023/07/02 02:26:55;;;;;;;3.60;3.30;;;;;;;16.59;100.00;155624.16;5009543;28;20444;-75
2023/07/02 02:29:23;;;;;;;4.27;3.87;;;;;;;16.59;100.00;155624.16;4981622;28;20456;-76
2023/07/02 02:31:49;;;;;;;4.70;4.20;;;;;;;16.58;100.00;155621.53;4971519;28;21066;-76
2023/07/02 02:34:16;;;;;;;3.73;3.17;;;;;;;16.60;100.00;155626.72;5007456;28;20567;-82
2023/07/02 02:36:43;;;;;;;4.23;3.80;;;;;;;16.63;100.00;155634.53;4998004;28;20491;-81
2023/07/02 02:39:11;;;;;;;5.13;3.90;;;;;;;16.64;100.00;155637.16;5002819;28;21076;-81
2023/07/02 02:41:37;;;;;;;3.97;3.27;;;;;;;16.61;100.00;155628.03;5002845;28;21053;-81
2023/07/02 02:44:05;;;;;;;4.03;3.37;;;;;;;16.59;100.00;155622.84;4978957;28;20822;-81
2023/07/02 02:46:33;;;;;;;4.20;3.80;;;;;;;16.60;100.00;155626.72;4991895;28;20456;-81
2023/07/02 02:49:00;;;;;;;5.57;3.60;;;;;;;16.57;100.00;155618.97;5009092;28;20467;-82
2023/07/02 02:51:26;;;;;;;4.20;3.60;;;;;;;16.59;100.00;155624.16;4993445;28;20467;-81
2023/07/02 02:53:53;;;;;;;4.70;3.73;;;;;;;16.59;100.00;155622.84;4993946;28;20465;-81
2023/07/02 02:56:19;;;;;;;3.77;3.40;;;;;;;16.60;100.00;155625.47;4993492;28;20497;-81
2023/07/02 02:58:46;;;;;;;4.17;3.30;;;;;;;16.60;100.00;155625.47;4997268;28;20556;-82
2023/07/02 03:01:14;;;;;;;4.00;3.17;;;;;;;16.60;100.00;155625.47;4980449;28;20622;-82
2023/07/02 03:03:44;;;;;;;3.60;3.27;;;;;;;16.53;100.00;155608.53;4971545;28;20512;-82
2023/07/02 03:06:11;;;;;;;4.43;3.70;;;;;;;16.54;100.00;155611.16;4998307;28;20453;-82
2023/07/02 03:08:38;;;;;;;4.50;4.10;;;;;;;16.57;100.00;155617.66;4982932;28;20448;-82
2023/07/02 03:11:05;;;;;;;4.33;3.93;;;;;;;16.52;100.00;155605.88;4991118;28;20464;-82
2023/07/02 03:13:31;;;;;;;4.27;3.87;;;;;;;16.52;100.00;155604.59;5018781;28;20447;-82
2023/07/02 03:15:58;;;;;;;3.80;3.50;;;;;;;16.50;100.00;155600.66;5003181;28;20834;-82
2023/07/02 03:18:25;;;;;;;3.87;3.40;;;;;;;16.50;100.00;155600.66;4976994;28;20465;-82
2023/07/02 03:20:53;;;;;;;4.13;3.70;;;;;;;16.50;100.00;155600.66;4991646;28;20449;-82
2023/07/02 03:23:19;;;;;;;4.27;3.87;;;;;;;16.50;100.00;155599.38;5001799;28;20542;-82
2023/07/02 03:25:46;;;;;;;5.07;3.50;;;;;;;16.49;100.00;155596.78;5014519;28;20479;-82
2023/07/02 03:28:13;;;;;;;3.57;3.23;;;;;;;16.47;100.00;155592.88;4996085;28;20457;-82
2023/07/02 03:30:39;;;;;;;6.30;3.37;;;;;;;16.45;100.00;155587.66;5013512;28;20839;-81
2023/07/02 03:33:06;;;;;;;4.47;3.53;;;;;;;16.44;100.00;155585.09;5011579;28;20485;-81
2023/07/02 03:35:32;;;;;;;4.87;3.47;;;;;;;16.37;100.00;155568.16;4996247;28;20476;-81
2023/07/02 03:38:00;;;;;;;4.17;3.77;;;;;;;16.29;100.00;155546.06;4975935;28;20460;-80
2023/07/02 03:40:27;;;;;;;4.03;3.63;;;;;;;16.22;100.00;155529.16;5009470;28;20444;-80
2023/07/02 03:42:53;;;;;;;4.13;3.50;;;;;;;16.17;100.00;155516.16;4996142;28;20555;-80
2023/07/02 03:45:20;;;;;;;3.97;3.57;;;;;;;16.11;100.00;155500.56;4995459;28;20465;-80
2023/07/02 03:47:46;;;;;;;4.20;3.40;;;;;;;16.08;100.00;155491.44;5011807;28;20467;-79
2023/07/02 03:50:13;;;;;;;4.40;4.00;;;;;;;16.04;100.00;155482.38;4996354;28;20451;-80
2023/07/02 03:52:40;;;;;;;5.67;4.20;;;;;;;15.98;100.00;155465.44;5017301;28;20445;-78
2023/07/02 03:55:09;;;;;;;4.53;4.13;;;;;;;15.97;100.00;155462.81;4991210;28;20457;-79
2023/07/02 03:57:35;;;;;;;6.20;4.10;;;;;;;15.93;100.00;155452.44;5009327;28;20464;-79
2023/07/02 04:00:04;;;;;;;4.13;3.83;;;;;;;15.90;100.00;155445.94;5004796;28;20461;-79
2023/07/02 04:02:41;;;;;;;4.33;3.83;;;;;;;15.91;100.00;155447.25;5010160;28;20452;-79
2023/07/02 04:05:07;;;;;;;4.73;3.87;;;;;;;15.88;100.00;155440.75;4983029;28;20986;-79
2023/07/02 04:07:34;;;;;;;9.73;6.13;;;;;;;15.87;100.00;155438.13;4993893;28;20962;-79
2023/07/02 04:10:01;;;;;;;5.60;4.50;;;;;;;15.80;100.00;155421.25;5009908;28;20459;-79
2023/07/02 04:12:29;;;;;;;4.87;3.93;;;;;;;15.79;100.00;155418.63;4990516;28;20884;-79
2023/07/02 04:14:55;;;;;;;4.90;4.40;;;;;;;15.76;100.00;155409.53;4993468;28;20463;-79
2023/07/02 04:17:22;;;;;;;5.10;4.47;;;;;;;15.71;100.00;155397.84;4995807;28;20877;-79
2023/07/02 04:19:48;;;;;;;4.30;3.90;;;;;;;15.69;100.00;155391.34;4988226;28;20830;-79
2023/07/02 04:22:15;;;;;;;7.33;4.53;;;;;;;15.62;100.00;155374.41;4986461;28;21221;-78
2023/07/02 04:24:42;;;;;;;5.70;4.67;;;;;;;15.59;100.00;155365.34;4992529;28;20452;-79
2023/07/02 04:27:08;;;;;;;5.63;5.07;;;;;;;15.57;100.00;155361.44;4973976;28;20991;-79
2023/07/02 04:29:36;;;;;;;5.43;4.93;;;;;;;15.55;100.00;155356.25;4991151;28;20445;-79
2023/07/02 04:32:03;;;;;;;5.53;4.43;;;;;;;15.52;100.00;155348.44;4985577;28;20515;-78
2023/07/02 04:34:29;;;;;;;6.90;4.43;;;;;;;15.54;100.00;155352.38;5003339;28;20576;-78
2023/07/02 04:36:56;;;;;;;5.83;4.67;;;;;;;15.58;100.00;155362.75;4991707;28;20534;-78
2023/07/02 04:39:23;;;;;;;4.93;4.10;;;;;;;15.61;100.00;155370.53;4989640;28;20543;-78
2023/07/02 04:41:52;;;;;;;7.13;4.70;;;;;;;15.60;100.00;155369.22;5008009;28;20464;-79
2023/07/02 04:44:20;;;;;;;7.03;5.33;;;;;;;15.60;100.00;155369.22;5008244;28;20444;-79
2023/07/02 04:46:48;;;;;;;6.70;4.20;;;;;;;15.63;100.00;155375.72;4989712;28;20467;-79
2023/07/02 04:49:15;;;;;;;5.33;4.33;;;;;;;15.60;100.00;155369.22;4988950;28;20559;-79
2023/07/02 04:51:42;;;;;;;5.17;4.20;;;;;;;15.62;100.00;155374.41;5008209;28;20464;-79
2023/07/02 04:54:08;;;;;;;7.20;4.33;;;;;;;15.59;100.00;155366.66;5016070;28;20444;-79
2023/07/02 04:56:35;;;;;;;5.20;4.30;;;;;;;15.59;100.00;155366.66;5007664;28;20481;-79
2023/07/02 04:59:01;;;;;;;4.20;3.70;;;;;;;15.60;100.00;155367.91;4993709;28;20459;-78
2023/07/02 05:01:28;;;;;;;7.33;4.20;;;;;;;15.64;100.00;155379.66;5001872;28;20457;-79
2023/07/02 05:03:56;;;;;;;6.30;4.27;;;;;;;15.68;100.00;155390.03;5003813;28;20463;-79
2023/07/02 05:06:23;;;;;;;5.13;3.97;;;;;;;15.71;100.00;155397.84;5000950;28;20462;-79
2023/07/02 05:08:49;;;;;;;7.20;4.50;;;;;;;15.80;100.00;155421.25;4996907;28;20489;-79
2023/07/02 05:11:16;;;;;;;8.70;4.00;;;;;;;16.07;100.00;155490.13;4998852;28;20566;-80
2023/07/02 05:13:43;;;;;;;5.60;4.20;;;;;;;16.37;100.00;155566.84;4997435;28;20448;-79
2023/07/02 05:16:10;;;;;;;5.60;4.70;;;;;;;16.64;100.00;155637.16;4984256;28;20484;-80
2023/07/02 05:18:37;;;;;;;6.13;4.60;;;;;;;16.72;100.00;155656.66;4996932;28;20460;-80
2023/07/02 05:21:26;;;;;;;5.47;4.37;;;;;;;16.74;100.00;155663.16;4980931;28;20461;-80
2023/07/02 05:23:53;;;;;;;4.37;3.40;;;;;;;16.72;100.00;155657.97;4996224;28;20483;-80
2023/07/02 05:26:19;;;;;;;4.30;3.83;;;;;;;16.70;100.00;155652.78;4977136;28;21064;-80
2023/07/02 05:28:46;;;;;;;7.10;4.20;;;;;;;16.66;100.00;155642.34;4978789;28;20477;-81
2023/07/02 05:31:13;;;;;;;4.70;3.70;;;;;;;16.61;100.00;155629.34;4979277;28;20914;-82
2023/07/02 05:33:39;;;;;;;5.70;4.57;;;;;;;16.57;100.00;155618.97;4981619;28;20589;-80
2023/07/02 05:36:09;;;;;;;5.20;4.50;;;;;;;16.54;100.00;155609.84;4981351;28;20480;-81
2023/07/02 05:38:39;;;;;;;6.50;4.37;;;;;;;16.55;100.00;155612.47;4979474;28;20459;-81
2023/07/02 05:41:06;;;;;;;5.53;5.00;;;;;;;16.54;100.00;155609.84;4984283;28;20468;-81
2023/07/02 05:43:33;;;;;;;6.57;4.80;;;;;;;16.54;100.00;155611.16;4980304;28;20813;-81
2023/07/02 05:46:01;;;;;;;5.43;4.27;;;;;;;16.54;100.00;155611.16;5002437;28;21011;-81
2023/07/02 05:48:30;;;;;;;7.30;5.37;;;;;;;16.55;100.00;155613.72;4999940;28;20488;-81
2023/07/02 05:50:56;;;;;;;5.60;4.30;;;;;;;16.58;100.00;155620.22;4981584;28;20450;-81
2023/07/02 05:53:23;;;;;;;6.00;5.03;;;;;;;16.62;100.00;155630.66;4995297;28;20484;-81
2023/07/02 05:55:51;;;;;;;6.90;4.90;;;;;;;16.82;100.00;155684.00;4978005;28;20569;-81
2023/07/02 05:58:18;;;;;;;7.60;5.13;;;;;;;17.17;100.00;155772.47;4996481;28;20459;-81
2023/07/02 06:00:48;;;;;;;9.43;5.23;;;;;;;17.57;100.00;155877.97;5005197;28;20572;-81
2023/07/02 06:06:20;;;;;;;9.17;5.50;;;;;;;18.43;95.57;156097.97;4986255;28;20456;-82
2023/07/02 06:08:49;;;;;;;7.90;5.90;;;;;;;18.66;93.77;156159.31;5005193;28;20479;-82
2023/07/02 06:11:19;;;;;;;6.80;5.37;;;;;;;18.94;93.18;156229.63;4989854;28;21061;-82
2023/07/02 06:13:46;;;;;;;6.30;5.10;;;;;;;19.16;92.61;156286.97;5000878;28;20450;-82
2023/07/02 06:16:13;;;;;;;7.40;5.30;;;;;;;19.25;89.98;156311.72;4982833;28;20471;-82
2023/07/02 06:18:39;;;;;;;9.80;6.00;;;;;;;19.43;86.90;156358.69;4985415;28;20567;-82
2023/07/02 06:21:06;;;;;;;7.30;5.97;;;;;;;19.66;87.29;156416.06;4985982;28;20465;-81
2023/07/02 06:23:41;;;;;;;6.50;5.37;;;;;;;19.73;86.78;156434.28;4984234;28;20830;-81
2023/07/02 06:26:07;;;;;;;6.50;5.30;;;;;;;19.85;84.75;156465.63;5000748;28;20981;-82
2023/07/02 06:28:35;;;;;;;6.80;5.37;;;;;;;20.08;85.25;156524.25;4980035;28;20464;-82
2023/07/02 06:31:02;;;;;;;7.40;5.83;;;;;;;20.29;80.94;156579.09;5000896;28;20472;-82
2023/07/02 06:33:29;;;;;;;6.83;5.43;;;;;;;20.38;82.09;156602.59;4982393;28;20476;-82
2023/07/02 06:35:55;;;;;;;8.23;5.80;;;;;;;20.40;81.00;156607.78;4986373;28;20530;-83
2023/07/02 06:38:22;;;;;;;7.50;6.03;;;;;;;20.28;83.34;156577.78;4995195;28;20456;-83
2023/07/02 06:40:49;;;;;;;7.70;6.90;;;;;;;20.20;83.32;156555.59;5001645;28;20453;-83
2023/07/02 06:43:18;;;;;;;8.60;6.40;;;;;;;20.18;83.26;156550.34;4964935;28;20490;-83
2023/07/02 06:45:46;;;;;;;7.93;6.93;;;;;;;20.03;82.27;156513.88;4986302;28;20819;-83
2023/07/02 06:48:14;;;;;;;11.73;7.50;;;;;;;19.93;82.67;156486.47;4982380;28;20479;-84
2023/07/02 06:50:44;;;;;;;10.07;7.70;;;;;;;19.86;83.52;156468.19;5006082;28;20490;-83
2023/07/02 06:53:10;;;;;;;8.33;6.67;;;;;;;19.75;84.20;156440.81;4982921;28;20512;-83
2023/07/02 06:55:37;;;;;;;10.60;7.87;;;;;;;19.64;82.16;156412.16;4965678;28;20458;-84
2023/07/02 06:58:05;;;;;;;12.10;8.17;;;;;;;19.58;82.34;156395.19;5000322;28;20479;-83
2023/07/02 07:00:32;;;;;;;8.33;7.50;;;;;;;19.43;82.73;156358.69;4985976;28;20464;-84
2023/07/02 07:03:00;;;;;;;8.17;6.50;;;;;;;19.35;85.52;156337.78;5002797;28;20554;-83
2023/07/02 07:05:27;;;;;;;11.50;7.80;;;;;;;19.25;86.11;156310.41;4999181;28;20456;-83
2023/07/02 07:07:53;;;;;;;10.10;7.83;;;;;;;19.22;84.68;156303.88;4986268;28;20544;-83
2023/07/02 07:10:20;;;;;;;9.80;7.80;;;;;;;19.20;82.58;156297.38;4964779;28;20488;-83
2023/07/02 07:12:47;;;;;;;8.67;7.07;;;;;;;19.15;83.08;156284.34;4999829;28;20885;-84
2023/07/02 07:15:13;;;;;;;10.07;7.40;;;;;;;19.15;85.91;156285.66;4989715;28;20951;-84
2023/07/02 07:17:40;;;;;;;8.80;7.67;;;;;;;19.12;85.41;156277.84;4966310;28;20840;-84
2023/07/02 07:20:12;;;;;;;10.77;8.30;;;;;;;19.10;86.14;156272.63;4964278;28;20454;-84
2023/07/02 07:22:39;;;;;;;13.43;8.30;;;;;;;19.07;86.27;156263.50;5002395;28;20699;-84
2023/07/02 07:25:08;;;;;;;13.47;8.17;;;;;;;19.12;83.90;156276.53;4983260;28;20485;-84
2023/07/02 07:27:34;;;;;;;12.17;9.23;;;;;;;19.30;85.22;156324.75;4998180;28;20483;-84
2023/07/02 07:30:01;;;;;;;15.90;8.20;;;;;;;19.43;83.54;156358.69;4983053;28;20961;-84
2023/07/02 07:32:30;;;;;;;13.13;9.60;;;;;;;19.54;84.19;156386.06;4982704;28;20462;-84
2023/07/02 07:34:56;;;;;;;10.27;7.77;;;;;;;19.50;81.84;156374.34;4982520;28;20828;-84
2023/07/02 07:37:25;;;;;;;12.80;9.47;;;;;;;19.54;82.43;156384.78;4984447;28;21009;-83
2023/07/02 07:39:54;;;;;;;14.87;10.33;;;;;;;19.50;81.53;156375.66;5003140;28;20461;-84
2023/07/02 07:42:28;;;;;;;12.87;10.03;;;;;;;19.46;82.10;156363.94;5000350;28;20835;-83
2023/07/02 07:44:54;;;;;;;11.23;9.37;;;;;;;19.37;79.09;156341.72;4989719;28;20456;-84
2023/07/02 07:47:23;;;;;;;15.37;11.80;;;;;;;19.41;78.24;156352.16;5000678;28;20551;-84
2023/07/02 07:49:49;;;;;;;13.10;10.07;;;;;;;19.35;78.04;156337.78;5004302;28;20456;-84
2023/07/02 07:52:16;;;;;;;14.20;10.10;;;;;;;19.36;77.87;156339.09;5002960;28;20460;-83
2023/07/02 07:54:44;;;;;;;15.00;10.37;;;;;;;19.50;76.29;156374.34;4992572;28;20469;-83
2023/07/02 07:57:11;;;;;;;12.60;9.23;;;;;;;19.62;78.54;156406.91;4981434;28;20480;-83
2023/07/02 07:59:38;;;;;;;15.60;9.10;;;;;;;19.73;77.41;156434.28;4982410;28;20473;-84
2023/07/02 08:02:05;;;;;;;14.67;10.07;;;;;;;19.82;75.85;156457.78;4997553;28;20475;-85
2023/07/02 08:04:32;;;;;;;13.80;10.47;;;;;;;19.95;78.50;156491.69;5000279;28;20556;-84
2023/07/02 08:06:58;;;;;;;13.70;10.93;;;;;;;19.88;77.28;156473.44;4980920;28;20560;-83
2023/07/02 08:09:25;;;;;;;14.47;9.60;;;;;;;19.88;76.98;156474.69;4985653;28;20454;-84
2023/07/02 08:11:53;;;;;;;12.53;9.77;;;;;;;19.84;75.17;156464.31;5000193;28;20548;-80
2023/07/02 08:14:20;;;;;;;12.73;10.57;;;;;;;19.97;74.26;156498.19;4985384;28;20466;-84
2023/07/02 08:16:47;;;;;;;12.83;10.00;;;;;;;20.07;73.44;156522.94;4996984;28;20963;-84
2023/07/02 08:19:14;;;;;;;11.80;9.83;;;;;;;20.32;72.28;156588.25;4993700;28;20979;-84
2023/07/02 08:21:43;;;;;;;12.63;10.10;;;;;;;20.86;74.04;156727.84;5002443;28;20773;-84
2023/07/02 08:24:10;;;;;;;14.87;10.47;;;;;;;21.09;70.99;156787.91;4965906;28;20478;-84
2023/07/02 08:26:38;;;;;;;12.50;10.00;;;;;;;21.33;70.37;156849.25;4981502;28;20468;-83
2023/07/02 08:29:06;;;;;;;14.93;10.80;;;;;;;21.51;69.51;156894.91;5002850;28;20456;-84
2023/07/02 08:31:33;;;;;;;12.70;10.60;;;;;;;21.57;68.27;156911.91;4999390;28;20499;-84
2023/07/02 08:33:59;;;;;;;15.57;10.97;;;;;;;21.62;68.67;156924.97;4983501;28;20825;-85
2023/07/02 08:36:26;;;;;;;14.00;9.50;;;;;;;21.54;69.43;156904.06;4981019;28;20481;-84
2023/07/02 08:38:55;;;;;;;14.20;10.37;;;;;;;21.58;68.08;156914.47;4985292;28;20564;-85
2023/07/02 08:41:23;;;;;;;14.63;10.73;;;;;;;21.52;66.72;156898.84;4977453;28;20464;-84
2023/07/02 08:43:51;;;;;;;12.50;10.33;;;;;;;21.53;69.89;156901.44;5000144;28;20577;-84
2023/07/02 08:46:19;;;;;;;12.70;10.87;;;;;;;21.59;65.77;156917.13;4978695;28;20455;-84
2023/07/02 08:48:46;;;;;;;14.50;10.67;;;;;;;21.72;66.43;156951.06;4996501;28;20448;-85
2023/07/02 08:51:12;;;;;;;12.37;10.43;;;;;;;21.75;65.53;156958.91;4963707;28;20461;-84
2023/07/02 08:53:41;;;;;;;12.37;10.60;;;;;;;21.93;64.63;157003.31;5000717;28;20804;-85
2023/07/02 08:56:10;;;;;;;14.37;10.37;;;;;;;22.12;64.31;157052.94;4984604;28;20543;-83
2023/07/02 08:58:37;;;;;;;12.47;9.80;;;;;;;22.43;63.29;157133.91;4980370;28;20499;-84
2023/07/02 09:01:08;;;;;;;14.10;10.77;;;;;;;22.68;64.50;157197.97;4978874;28;20457;-84
2023/07/02 09:03:37;;;;;;;14.93;9.80;;;;;;;22.61;63.45;157179.66;4980863;28;21022;-85
2023/07/02 09:06:03;;;;;;;12.60;10.80;;;;;;;22.48;59.64;157146.97;4994694;28;20474;-85
2023/07/02 09:08:33;;;;;;;12.67;10.27;;;;;;;22.52;63.77;157156.13;4978408;28;20456;-84
2023/07/02 09:11:10;;;;;;;13.53;9.97;;;;;;;22.69;61.53;157201.88;5001596;28;20978;-84
2023/07/02 09:13:50;;;;;;;13.13;9.40;;;;;;;22.87;64.44;157248.97;4993790;28;21035;-84
2023/07/02 09:16:24;;;;;;;11.30;8.77;;;;;;;22.85;62.71;157243.69;4983571;28;20559;-85
2023/07/02 09:19:04;;;;;;;12.20;9.00;;;;;;;22.61;59.60;157180.94;4963313;28;20586;-84
2023/07/02 09:21:44;;;;;;;11.00;9.40;;;;;;;22.61;61.17;157180.94;4981525;28;21073;-84
2023/07/02 09:24:15;;;;;;;9.77;8.60;;;;;;;22.84;56.64;157241.13;4978242;28;20445;-84
2023/07/02 09:26:46;;;;;;;11.93;10.30;;;;;;;23.08;56.68;157302.53;4995870;28;20468;-84
2023/07/02 09:29:13;;;;;;;10.30;9.20;;;;;;;23.11;58.90;157309.06;4991408;28;21039;-84
2023/07/02 09:31:47;;;;;;;13.07;10.00;;;;;;;23.13;58.46;157315.59;4994832;28;20457;-84
2023/07/02 09:34:15;;;;;;;12.27;8.87;;;;;;;23.15;58.04;157320.81;4995171;28;20562;-85
2023/07/02 09:36:45;;;;;;;12.47;9.73;;;;;;;23.43;56.28;157392.75;4993742;28;20463;-84
2023/07/02 09:39:13;;;;;;;12.63;9.90;;;;;;;23.54;56.66;157422.78;5000227;28;20476;-84
2023/07/02 09:41:41;;;;;;;11.03;9.63;;;;;;;23.59;59.83;157434.53;4972594;28;20460;-85
2023/07/02 09:44:09;;;;;;;12.30;9.80;;;;;;;23.55;54.16;157425.41;4991642;28;20445;-84
2023/07/02 09:46:39;;;;;;;11.47;9.73;;;;;;;23.70;53.89;157463.31;4984814;28;20512;-85
2023/07/02 09:49:07;;;;;;;11.67;8.87;;;;;;;23.74;55.25;157472.47;5008178;28;20450;-84
2023/07/02 09:51:35;;;;;;;11.87;9.60;;;;;;;23.80;55.17;157488.19;5004836;28;20459;-85
2023/07/02 09:54:05;;;;;;;11.17;9.20;;;;;;;23.92;58.40;157520.84;4989169;28;20838;-84
2023/07/02 09:56:32;;;;;;;10.40;8.90;;;;;;;23.84;56.31;157498.63;5001343;28;20460;-85
2023/07/02 09:58:59;;;;;;;11.40;8.77;;;;;;;23.65;57.36;157450.25;4967326;28;20468;-84
2023/07/02 10:01:25;;;;;;;12.13;8.60;;;;;;;23.57;56.58;157429.31;4968541;28;21023;-85
2023/07/02 10:03:52;;;;;;;10.40;8.87;;;;;;;23.50;57.13;157411.03;4996431;28;20437;-85
2023/07/02 10:06:19;;;;;;;11.30;9.60;;;;;;;23.49;63.00;157409.72;5001688;28;20488;-85
2023/07/02 10:08:57;;;;;;;11.73;9.90;;;;;;;23.42;59.96;157390.13;4999276;28;20530;-85
2023/07/02 10:11:34;;;;;;;12.27;10.20;;;;;;;23.42;54.61;157391.44;4999531;28;21051;-85
2023/07/02 10:14:01;;;;;;;12.43;11.03;;;;;;;23.48;59.90;157407.09;4984347;28;20463;-85
2023/07/02 10:16:31;;;;;;;14.67;11.27;;;;;;;23.51;59.96;157413.69;5001633;28;20448;-85
2023/07/02 10:19:09;;;;;;;17.33;10.70;;;;;;;23.63;60.49;157446.34;4985032;28;20479;-85
2023/07/02 10:21:36;;;;;;;14.07;11.67;;;;;;;23.77;59.44;157481.66;4964325;28;20465;-85
2023/07/02 10:24:12;;;;;;;16.43;12.20;;;;;;;23.78;55.79;157484.22;5001577;28;20794;-85
2023/07/02 10:26:39;;;;;;;15.07;11.53;;;;;;;23.78;57.78;157484.22;4963543;28;20449;-85
2023/07/02 10:29:07;;;;;;;13.97;12.40;;;;;;;23.71;56.32;157464.63;4985015;28;20461;-85
2023/07/02 10:31:34;;;;;;;14.10;11.20;;;;;;;23.70;54.38;157462.00;4995427;28;20546;-85
2023/07/02 10:34:00;;;;;;;18.30;13.90;;;;;;;23.70;55.96;157462.00;5002271;28;20484;-85
2023/07/02 10:36:27;;;;;;;13.87;12.27;;;;;;;23.70;53.37;157462.00;4999489;28;20596;-85
2023/07/02 10:39:01;;;;;;;14.30;11.77;;;;;;;23.71;53.69;157465.94;4998316;28;20529;-85
2023/07/02 10:41:30;;;;;;;13.03;11.70;;;;;;;23.83;54.46;157497.28;4966688;28;20833;-85
2023/07/02 10:44:06;;;;;;;13.17;11.10;;;;;;;23.96;56.03;157531.28;4983796;28;20556;-86
2023/07/02 10:46:33;;;;;;;13.23;11.33;;;;;;;24.04;52.17;157552.22;5001315;28;20480;-85
2023/07/02 10:49:00;;;;;;;13.03;11.47;;;;;;;24.22;56.13;157599.31;5004419;28;22162;-84
2023/07/02 10:51:29;;;;;;;12.53;11.27;;;;;;;24.21;52.96;157596.75;5009967;28;20855;-85
2023/07/02 10:53:59;;;;;;;13.43;11.77;;;;;;;24.14;51.65;157578.47;5007711;28;20470;-85
2023/07/02 10:56:27;;;;;;;13.03;11.07;;;;;;;24.14;57.93;157577.13;5008869;28;20464;-85
2023/07/02 10:58:56;;;;;;;12.63;11.20;;;;;;;24.10;53.34;157567.97;4983979;28;20849;-84
2023/07/02 11:01:23;;;;;;;14.37;11.17;;;;;;;24.08;58.17;157562.75;5008914;28;20551;-85
2023/07/02 11:03:56;;;;;;;15.43;11.57;;;;;;;23.97;52.03;157533.91;5007529;28;20566;-85
2023/07/02 11:06:23;;;;;;;13.60;10.77;;;;;;;23.95;56.21;157527.38;4988266;28;20982;-85
2023/07/02 11:08:50;;;;;;;16.33;12.00;;;;;;;23.93;52.74;157523.47;4986497;28;20800;-85
2023/07/02 11:11:17;;;;;;;13.67;11.20;;;;;;;23.94;55.56;157524.75;5006511;28;20488;-85
2023/07/02 11:13:47;;;;;;;13.83;11.07;;;;;;;23.90;56.05;157515.63;4986713;28;20456;-84
2023/07/02 11:16:25;;;;;;;14.97;11.23;;;;;;;23.99;57.27;157539.13;4988499;28;20582;-85
2023/07/02 11:18:52;;;;;;;13.60;10.40;;;;;;;23.95;58.02;157528.69;4985340;28;20590;-85
2023/07/02 11:21:19;;;;;;;10.93;9.80;;;;;;;23.91;53.71;157518.22;4987310;28;21047;-84
2023/07/02 11:23:49;;;;;;;12.50;11.13;;;;;;;23.94;53.61;157526.06;4987850;28;20463;-85